createdAt,value
2018-07-13T00:02:12.804Z,81.75
2018-07-13T00:04:41.381Z,81.76
2018-07-13T00:07:09.786Z,81.44
2018-07-13T00:09:38.213Z,81.99
2018-07-13T00:12:06.647Z,81.38
2018-07-13T00:14:35.083Z,82.01
2018-07-13T00:17:03.814Z,81.39
2018-07-13T00:19:32.241Z,82.23
2018-07-13T00:22:00.651Z,81.55
2018-07-13T00:24:29.088Z,82.64
2018-07-13T00:26:57.503Z,82.11
2018-07-13T00:29:25.933Z,82.41
2018-07-13T00:31:54.343Z,82.59
2018-07-13T00:34:22.773Z,82.62
2018-07-13T00:36:51.188Z,82.35
2018-07-13T00:39:19.614Z,83.20
2018-07-13T00:41:48.031Z,83.22
2018-07-13T00:44:16.467Z,82.74
2018-07-13T00:46:44.874Z,82.39
2018-07-13T00:49:13.306Z,82.20
2018-07-13T00:51:41.735Z,82.15
2018-07-13T00:54:10.174Z,83.01
2018-07-13T00:56:38.578Z,82.92
2018-07-13T00:59:07.008Z,82.14
2018-07-13T01:01:35.422Z,83.01
2018-07-13T01:04:03.849Z,82.66
2018-07-13T01:06:32.268Z,82.62
2018-07-13T01:09:00.689Z,82.33
2018-07-13T01:11:29.130Z,82.30
2018-07-13T01:13:57.559Z,82.71
2018-07-13T01:16:25.974Z,82.24
2018-07-13T01:18:54.405Z,82.62
2018-07-13T01:21:22.815Z,82.31
2018-07-13T01:23:51.251Z,82.67
2018-07-13T01:26:19.682Z,82.96
2018-07-13T01:28:48.112Z,82.88
2018-07-13T01:31:16.545Z,82.60
2018-07-13T01:33:44.999Z,83.04
2018-07-13T01:36:13.406Z,83.25
2018-07-13T01:38:41.822Z,82.22
2018-07-13T01:41:10.245Z,82.46
2018-07-13T01:43:38.706Z,83.01
2018-07-13T01:46:07.230Z,83.23
2018-07-13T01:48:35.634Z,82.95
2018-07-13T01:51:04.099Z,82.39
2018-07-13T01:53:32.522Z,82.82
2018-07-13T01:56:00.949Z,82.38
2018-07-13T01:58:29.362Z,83.15
2018-07-13T02:00:57.791Z,83.39
2018-07-13T02:03:26.222Z,82.69
2018-07-13T02:05:54.654Z,83.30
2018-07-13T02:08:23.053Z,83.03
2018-07-13T02:10:51.511Z,83.32
2018-07-13T02:13:19.923Z,83.52
2018-07-13T02:15:48.362Z,83.54
2018-07-13T02:18:16.788Z,82.64
2018-07-13T02:20:45.216Z,82.90
2018-07-13T02:23:13.633Z,82.84
2018-07-13T02:25:42.069Z,82.56
2018-07-13T02:28:10.474Z,83.20
2018-07-13T02:30:38.902Z,82.52
2018-07-13T02:33:07.310Z,83.02
2018-07-13T02:35:35.812Z,83.30
2018-07-13T02:38:04.235Z,82.08
2018-07-13T02:40:32.678Z,82.84
2018-07-13T02:43:01.090Z,81.82
2018-07-13T02:45:29.518Z,82.56
2018-07-13T02:47:58.007Z,82.87
2018-07-13T02:50:26.435Z,82.06
2018-07-13T02:52:54.849Z,82.84
2018-07-13T02:55:23.282Z,81.99
2018-07-13T02:57:51.699Z,82.02
2018-07-13T03:00:20.155Z,82.33
2018-07-13T03:02:48.571Z,82.61
2018-07-13T03:05:17.003Z,82.04
2018-07-13T03:07:45.422Z,82.73
2018-07-13T03:10:13.864Z,82.66
2018-07-13T03:12:42.298Z,81.76
2018-07-13T03:15:10.827Z,82.67
2018-07-13T03:17:39.222Z,82.14
2018-07-13T03:20:07.649Z,82.10
2018-07-13T03:22:36.050Z,82.17
2018-07-13T03:25:04.550Z,82.80
2018-07-13T03:27:32.958Z,82.78
2018-07-13T03:30:01.386Z,82.54
2018-07-13T03:32:29.796Z,82.67
2018-07-13T03:34:58.247Z,82.94
2018-07-13T03:37:26.659Z,82.44
2018-07-13T03:39:55.062Z,81.90
2018-07-13T03:42:23.495Z,82.89
2018-07-13T03:44:51.898Z,82.54
2018-07-13T03:47:20.339Z,82.52
2018-07-13T03:49:48.751Z,82.32
2018-07-13T03:52:17.190Z,82.92
2018-07-13T03:54:45.608Z,82.55
2018-07-13T03:57:14.033Z,82.50
2018-07-13T03:59:42.438Z,82.67
2018-07-13T04:02:10.866Z,82.28
2018-07-13T04:04:39.276Z,82.15
2018-07-13T04:07:07.766Z,82.08
2018-07-13T04:09:36.151Z,82.15
2018-07-13T04:12:04.605Z,83.01
2018-07-13T04:14:33.021Z,82.20
2018-07-13T04:17:01.454Z,82.96
2018-07-13T04:19:29.862Z,82.79
2018-07-13T04:21:58.314Z,83.51
2018-07-13T04:24:26.730Z,82.67
2018-07-13T04:26:55.166Z,83.53
2018-07-13T04:29:23.575Z,83.27
2018-07-13T04:31:52.097Z,83.61
2018-07-13T04:34:20.540Z,83.50
2018-07-13T04:36:48.962Z,83.07
2018-07-13T04:39:17.375Z,82.98
2018-07-13T04:41:45.826Z,83.16
2018-07-13T04:44:14.237Z,83.25
2018-07-13T04:46:42.670Z,82.95
2018-07-13T04:49:11.082Z,83.49
2018-07-13T04:51:39.529Z,82.79
2018-07-13T04:54:07.954Z,82.71
2018-07-13T04:56:36.382Z,82.69
2018-07-13T04:59:04.845Z,82.29
2018-07-13T05:01:33.270Z,82.93
2018-07-13T05:04:01.675Z,82.22
2018-07-13T05:06:30.102Z,82.24
2018-07-13T05:08:58.511Z,82.32
2018-07-13T05:11:26.965Z,82.04
2018-07-13T05:13:55.383Z,81.64
2018-07-13T05:16:23.805Z,82.06
2018-07-13T05:18:52.213Z,81.57
2018-07-13T05:21:20.692Z,81.86
2018-07-13T05:23:49.104Z,80.98
2018-07-13T05:26:17.534Z,80.80
2018-07-13T05:28:45.966Z,80.72
2018-07-13T05:31:14.659Z,81.40
2018-07-13T05:33:43.140Z,81.47
2018-07-13T05:36:11.646Z,81.50
2018-07-13T05:38:40.199Z,80.98
2018-07-13T05:41:08.606Z,80.99
2018-07-13T05:43:37.038Z,81.48
2018-07-13T05:46:05.455Z,80.57
2018-07-13T05:48:34.554Z,80.00
2018-07-13T05:51:03.024Z,80.27
2018-07-13T05:53:31.618Z,79.40
2018-07-13T05:56:00.064Z,78.31
2018-07-13T05:58:28.611Z,78.42
2018-07-13T06:00:57.035Z,77.32
2018-07-13T06:03:25.535Z,76.76
2018-07-13T06:05:54.063Z,75.16
2018-07-13T06:08:22.515Z,75.06
2018-07-13T06:10:51.139Z,74.52
2018-07-13T06:13:19.587Z,74.38
2018-07-13T06:15:47.999Z,74.24
2018-07-13T06:18:16.428Z,74.71
2018-07-13T06:20:44.841Z,74.34
2018-07-13T06:23:13.458Z,74.38
2018-07-13T06:25:42.143Z,74.01
2018-07-13T06:28:10.581Z,72.22
2018-07-13T06:30:39.073Z,71.92
2018-07-13T06:33:08.099Z,71.66
2018-07-13T06:35:36.617Z,71.58
2018-07-13T06:38:05.723Z,71.39
2018-07-13T06:40:34.212Z,70.68
2018-07-13T06:43:02.618Z,71.22
2018-07-13T06:45:31.546Z,71.42
2018-07-13T06:47:59.982Z,70.03
2018-07-13T06:50:28.450Z,69.25
2018-07-13T06:52:56.874Z,69.30
2018-07-13T06:55:25.277Z,68.39
2018-07-13T06:58:04.990Z,68.99
2018-07-13T07:01:08.597Z,68.87
2018-07-13T07:04:48.213Z,67.79
2018-07-13T07:07:20.947Z,67.74
2018-07-13T07:09:52.300Z,67.25
2018-07-13T07:13:28.266Z,66.84
2018-07-13T07:15:56.695Z,65.85
2018-07-13T07:18:25.205Z,65.63
2018-07-13T07:20:53.973Z,65.52
2018-07-13T07:23:22.422Z,66.61
2018-07-13T07:25:50.865Z,65.52
2018-07-13T07:28:19.310Z,65.24
2018-07-13T07:30:47.750Z,65.33
2018-07-13T07:33:16.192Z,65.08
2018-07-13T07:35:44.603Z,64.81
2018-07-13T07:38:13.047Z,64.69
2018-07-13T07:40:41.563Z,64.59
2018-07-13T07:43:10.026Z,64.09
2018-07-13T07:45:38.446Z,65.20
2018-07-13T07:48:07.101Z,64.56
2018-07-13T07:50:35.714Z,65.13
2018-07-13T07:53:04.117Z,64.21
2018-07-13T07:55:32.550Z,64.38
2018-07-13T07:58:00.965Z,64.59
2018-07-13T08:00:30.406Z,64.58
2018-07-13T08:02:58.827Z,63.35
2018-07-13T08:05:27.263Z,62.62
2018-07-13T08:07:55.674Z,63.21
2018-07-13T08:10:24.111Z,62.45
2018-07-13T08:12:52.594Z,62.86
2018-07-13T08:15:21.041Z,61.45
2018-07-13T08:17:49.445Z,62.52
2018-07-13T08:20:20.735Z,62.37
2018-07-13T08:22:52.018Z,62.16
2018-07-13T08:25:21.017Z,61.62
2018-07-13T08:27:52.097Z,62.06
2018-07-13T08:30:32.053Z,61.60
2018-07-13T08:33:00.467Z,61.53
2018-07-13T08:35:28.869Z,60.98
2018-07-13T08:37:57.251Z,60.96
2018-07-13T08:40:25.695Z,60.88
2018-07-13T08:42:54.118Z,61.59
2018-07-13T08:45:22.527Z,61.13
2018-07-13T08:47:50.918Z,60.17
2018-07-13T08:50:19.342Z,61.01
2018-07-13T08:52:47.747Z,59.74
2018-07-13T08:55:16.858Z,59.44
2018-07-13T08:57:47.642Z,59.89
2018-07-13T09:00:16.069Z,58.94
2018-07-13T09:02:44.459Z,59.60
2018-07-13T09:05:12.885Z,58.38
2018-07-13T09:07:41.274Z,58.97
2018-07-13T09:10:12.047Z,58.90
2018-07-13T09:12:40.726Z,58.47
2018-07-13T09:15:09.994Z,58.55
2018-07-13T09:17:38.379Z,58.13
2018-07-13T09:20:08.335Z,58.55
2018-07-13T09:22:36.722Z,57.56
2018-07-13T09:25:05.214Z,58.16
2018-07-13T09:27:33.599Z,57.43
2018-07-13T09:30:02.005Z,57.69
2018-07-13T09:32:30.405Z,58.30
2018-07-13T09:34:58.871Z,57.91
2018-07-13T09:37:27.413Z,57.34
2018-07-13T09:39:55.822Z,57.24
2018-07-13T09:42:24.204Z,56.47
2018-07-13T09:44:52.611Z,55.89
2018-07-13T09:47:20.994Z,56.22
2018-07-13T09:49:49.405Z,56.31
2018-07-13T09:52:17.783Z,56.53
2018-07-13T09:54:46.198Z,56.54
2018-07-13T09:57:14.581Z,56.56
2018-07-13T09:59:43.122Z,55.62
2018-07-13T10:02:11.514Z,56.52
2018-07-13T10:04:39.923Z,56.76
2018-07-13T10:07:08.461Z,54.79
2018-07-13T10:09:36.842Z,54.48
2018-07-13T10:12:05.275Z,54.51
2018-07-13T10:14:33.884Z,54.56
2018-07-13T10:17:02.294Z,54.37
2018-07-13T10:19:30.721Z,54.40
2018-07-13T10:21:59.275Z,54.08
2018-07-13T10:24:28.162Z,54.63
2018-07-13T10:26:57.287Z,54.33
2018-07-13T10:29:29.943Z,53.40
2018-07-13T10:31:58.434Z,52.55
2018-07-13T10:34:26.822Z,51.86
2018-07-13T10:37:00.776Z,52.07
2018-07-13T10:39:29.240Z,51.75
2018-07-13T10:41:57.659Z,51.80
2018-07-13T10:44:26.029Z,52.16
2018-07-13T10:46:54.601Z,51.86
2018-07-13T10:49:22.986Z,50.49
2018-07-13T10:51:51.978Z,49.80
2018-07-13T10:54:20.642Z,50.01
2018-07-13T10:56:49.046Z,49.97
2018-07-13T10:59:17.544Z,50.96
2018-07-13T11:01:46.110Z,51.19
2018-07-13T11:04:14.982Z,50.81
2018-07-13T11:06:44.405Z,49.12
2018-07-13T11:09:12.778Z,48.60
2018-07-13T11:11:41.228Z,48.48
2018-07-13T11:14:09.878Z,47.83
2018-07-13T11:16:38.534Z,49.18
2018-07-13T11:19:06.947Z,48.82
2018-07-13T11:21:35.497Z,48.01
2018-07-13T11:24:03.874Z,47.82
2018-07-13T11:26:32.282Z,47.32
2018-07-13T11:29:00.923Z,48.17
2018-07-13T11:31:29.337Z,47.26
2018-07-13T11:33:57.722Z,47.34
2018-07-13T11:36:26.163Z,46.55
2018-07-13T11:38:54.529Z,46.22
2018-07-13T11:41:22.919Z,46.18
2018-07-13T11:43:51.791Z,46.69
2018-07-13T11:46:20.194Z,46.36
2018-07-13T11:48:48.570Z,46.58
2018-07-13T11:51:16.974Z,46.45
2018-07-13T11:53:45.379Z,45.39
2018-07-13T11:56:14.246Z,44.57
2018-07-13T11:58:42.626Z,44.70
2018-07-13T12:01:11.118Z,44.86
2018-07-13T12:03:39.498Z,44.77
2018-07-13T12:06:08.166Z,44.56
2018-07-13T12:08:36.622Z,44.88
2018-07-13T12:11:05.070Z,43.98
2018-07-13T12:13:33.449Z,44.56
2018-07-13T12:16:01.851Z,43.94
2018-07-13T12:18:30.363Z,44.33
2018-07-13T12:20:58.747Z,43.57
2018-07-13T12:23:27.163Z,43.99
2018-07-13T12:25:55.554Z,43.82
2018-07-13T12:28:24.295Z,42.98
2018-07-13T12:30:52.667Z,41.00
2018-07-13T12:33:21.071Z,40.51
2018-07-13T12:35:49.465Z,42.01
2018-07-13T12:38:17.882Z,41.27
2018-07-13T12:40:46.263Z,40.87
2018-07-13T12:43:14.667Z,40.64
2018-07-13T12:45:43.049Z,40.74
2018-07-13T12:48:11.544Z,40.83
2018-07-13T12:50:39.926Z,41.31
2018-07-13T12:53:08.335Z,41.83
2018-07-13T12:55:36.722Z,42.40
2018-07-13T12:58:05.291Z,42.01
2018-07-13T13:00:33.677Z,42.35
2018-07-13T13:03:02.091Z,40.87
2018-07-13T13:05:30.567Z,39.68
2018-07-13T13:07:59.133Z,39.74
2018-07-13T13:10:27.502Z,40.63
2018-07-13T13:12:56.116Z,40.29
2018-07-13T13:15:24.600Z,40.52
2018-07-13T13:17:52.913Z,39.17
2018-07-13T13:20:21.427Z,39.93
2018-07-13T13:22:49.959Z,39.60
2018-07-13T13:25:18.330Z,37.86
2018-07-13T13:27:46.730Z,39.22
2018-07-13T13:30:15.110Z,39.42
2018-07-13T13:32:43.519Z,39.83
2018-07-13T13:35:11.891Z,39.47
2018-07-13T13:37:40.297Z,39.54
2018-07-13T13:40:08.688Z,38.89
2018-07-13T13:42:37.073Z,39.47
2018-07-13T13:45:05.450Z,39.33
2018-07-13T13:47:33.843Z,38.39
2018-07-13T13:50:02.205Z,38.57
2018-07-13T13:52:30.598Z,38.07
2018-07-13T13:54:58.981Z,38.51
2018-07-13T13:57:27.390Z,37.74
2018-07-13T13:59:55.803Z,38.36
2018-07-13T14:02:24.183Z,37.86
2018-07-13T14:04:52.587Z,37.54
2018-07-13T14:07:20.990Z,37.47
2018-07-13T14:09:49.407Z,37.71
2018-07-13T14:12:17.874Z,38.08
2018-07-13T14:14:46.285Z,37.69
2018-07-13T14:17:14.671Z,38.86
2018-07-13T14:19:43.071Z,38.00
2018-07-13T14:22:11.601Z,36.61
2018-07-13T14:24:40.011Z,37.64
2018-07-13T14:27:08.381Z,38.02
2018-07-13T14:29:36.807Z,38.46
2018-07-13T14:32:05.593Z,37.55
2018-07-13T14:34:33.999Z,37.56
2018-07-13T14:37:02.446Z,37.62
2018-07-13T14:39:30.842Z,36.87
2018-07-13T14:41:59.215Z,36.69
2018-07-13T14:44:27.623Z,37.83
2018-07-13T14:46:56.043Z,38.68
2018-07-13T14:49:24.438Z,37.67
2018-07-13T14:51:52.915Z,35.83
2018-07-13T14:54:21.319Z,35.86
2018-07-13T14:56:49.701Z,36.26
2018-07-13T14:59:18.122Z,36.48
2018-07-13T15:01:46.504Z,35.71
2018-07-13T15:04:14.958Z,36.20
2018-07-13T15:06:43.378Z,35.67
2018-07-13T15:09:11.745Z,36.12
2018-07-13T15:11:40.143Z,36.27
2018-07-13T15:14:08.570Z,36.81
2018-07-13T15:16:36.946Z,36.51
2018-07-13T15:19:05.388Z,36.66
2018-07-13T15:21:33.763Z,37.38
2018-07-13T15:24:02.168Z,36.69
2018-07-13T15:26:30.551Z,36.72
2018-07-13T15:28:58.979Z,37.12
2018-07-13T15:31:27.365Z,37.33
2018-07-13T15:33:55.750Z,37.28
2018-07-13T15:36:24.118Z,37.99
2018-07-13T15:38:52.514Z,37.85
2018-07-13T15:41:20.898Z,37.44
2018-07-13T15:43:49.610Z,38.10
2018-07-13T15:46:17.978Z,37.18
2018-07-13T15:48:46.378Z,37.38
2018-07-13T15:51:14.763Z,38.25
2018-07-13T15:53:43.167Z,37.00
2018-07-13T15:56:11.533Z,37.91
2018-07-13T15:58:39.951Z,37.57
2018-07-13T16:01:08.358Z,36.98
2018-07-13T16:03:36.779Z,37.15
2018-07-13T16:06:05.162Z,36.95
2018-07-13T16:08:33.559Z,37.10
2018-07-13T16:11:01.964Z,37.86
2018-07-13T16:13:30.349Z,38.42
2018-07-13T16:15:58.778Z,37.85
2018-07-13T16:18:27.158Z,38.32
2018-07-13T16:20:55.562Z,38.36
2018-07-13T16:23:23.956Z,37.12
2018-07-13T16:25:52.359Z,37.80
2018-07-13T16:28:20.876Z,36.94
2018-07-13T16:30:49.150Z,38.07
2018-07-13T16:33:17.545Z,37.61
2018-07-13T16:35:45.921Z,37.71
2018-07-13T16:38:14.323Z,37.60
2018-07-13T16:40:42.731Z,36.94
2018-07-13T16:43:11.135Z,35.81
2018-07-13T16:45:39.510Z,35.42
2018-07-13T16:48:07.911Z,35.34
2018-07-13T16:50:36.321Z,34.02
2018-07-13T16:53:04.735Z,34.98
2018-07-13T16:55:33.114Z,34.19
2018-07-13T16:58:01.635Z,32.92
2018-07-13T17:00:30.144Z,32.41
2018-07-13T17:02:58.638Z,32.11
2018-07-13T17:05:27.134Z,32.41
2018-07-13T17:07:55.574Z,31.25
2018-07-13T17:10:23.992Z,31.76
2018-07-13T17:12:52.435Z,31.20
2018-07-13T17:15:20.844Z,31.93
2018-07-13T17:17:49.231Z,32.00
2018-07-13T17:20:17.724Z,31.53
2018-07-13T17:22:46.155Z,31.59
2018-07-13T17:25:14.591Z,31.48
2018-07-13T17:27:43.005Z,31.62
2018-07-13T17:30:11.879Z,31.25
2018-07-13T17:32:40.271Z,32.10
2018-07-13T17:35:08.706Z,30.72
2018-07-13T17:37:37.090Z,31.25
2018-07-13T17:40:05.859Z,31.48
2018-07-13T17:42:34.297Z,31.48
2018-07-13T17:45:02.706Z,31.55
2018-07-13T17:47:31.098Z,31.69
2018-07-13T17:49:59.511Z,30.93
2018-07-13T17:52:27.898Z,31.62
2018-07-13T17:54:56.362Z,31.10
2018-07-13T17:57:24.733Z,32.09
2018-07-13T17:59:53.160Z,32.22
2018-07-13T18:02:21.539Z,32.19
2018-07-13T18:04:49.938Z,33.61
2018-07-13T18:07:18.358Z,34.13
2018-07-13T18:09:46.761Z,34.92
2018-07-13T18:12:15.134Z,34.50
2018-07-13T18:14:43.525Z,35.53
2018-07-13T18:17:11.896Z,35.67
2018-07-13T18:19:40.327Z,35.20
2018-07-13T18:22:08.701Z,36.05
2018-07-13T18:24:37.115Z,37.61
2018-07-13T18:27:05.486Z,37.37
2018-07-13T18:29:33.864Z,36.97
2018-07-13T18:32:02.265Z,38.02
2018-07-13T18:34:31.855Z,38.24
2018-07-13T18:37:00.313Z,38.52
2018-07-13T18:39:28.691Z,38.21
2018-07-13T18:41:57.093Z,39.15
2018-07-13T18:44:25.919Z,39.49
2018-07-13T18:46:54.274Z,39.70
2018-07-13T18:49:22.644Z,40.11
2018-07-13T18:51:51.122Z,39.05
2018-07-13T18:54:19.599Z,40.21
2018-07-13T18:56:48.012Z,40.37
2018-07-13T18:59:16.386Z,40.63
2018-07-13T19:01:44.794Z,41.02
2018-07-13T19:04:13.193Z,40.96
2018-07-13T19:06:41.595Z,40.76
2018-07-13T19:09:10.607Z,41.47
2018-07-13T19:11:39.035Z,40.91
2018-07-13T19:14:07.410Z,41.69
2018-07-13T19:16:35.815Z,41.46
2018-07-13T19:19:04.190Z,41.66
2018-07-13T19:21:32.591Z,41.81
2018-07-13T19:24:01.083Z,42.17
2018-07-13T19:26:29.491Z,42.93
2018-07-13T19:28:57.865Z,42.59
2018-07-13T19:31:26.272Z,42.81
2018-07-13T19:33:54.773Z,43.76
2018-07-13T19:36:23.212Z,43.88
2018-07-13T19:38:51.594Z,43.64
2018-07-13T19:41:19.990Z,43.99
2018-07-13T19:43:48.822Z,44.23
2018-07-13T19:46:17.286Z,45.23
2018-07-13T19:48:45.670Z,44.99
2018-07-13T19:51:14.217Z,45.44
2018-07-13T19:53:42.614Z,45.32
2018-07-13T19:56:10.992Z,45.54
2018-07-13T19:58:39.400Z,46.34
2018-07-13T20:01:07.816Z,46.72
2018-07-13T20:03:36.214Z,47.14
2018-07-13T20:06:04.592Z,46.43
2018-07-13T20:08:33.047Z,47.47
2018-07-13T20:11:01.543Z,47.59
2018-07-13T20:13:29.879Z,47.19
2018-07-13T20:15:59.801Z,48.18
2018-07-13T20:18:28.218Z,48.24
2018-07-13T20:20:56.628Z,47.92
2018-07-13T20:23:25.018Z,48.85
2018-07-13T20:25:53.394Z,48.28
2018-07-13T20:28:21.794Z,48.65
2018-07-13T20:30:50.178Z,49.61
2018-07-13T20:33:18.607Z,50.03
2018-07-13T20:35:46.978Z,50.13
2018-07-13T20:38:15.390Z,50.26
2018-07-13T20:40:43.777Z,50.68
2018-07-13T20:43:12.179Z,51.83
2018-07-13T20:45:40.671Z,52.10
2018-07-13T20:48:09.065Z,51.51
2018-07-13T20:50:37.445Z,52.76
2018-07-13T20:53:05.847Z,52.88
2018-07-13T20:55:34.231Z,52.40
2018-07-13T20:58:02.638Z,52.70
2018-07-13T21:00:31.005Z,52.71
2018-07-13T21:02:59.444Z,52.92
2018-07-13T21:05:27.814Z,53.13
2018-07-13T21:07:56.315Z,54.30
2018-07-13T21:10:24.686Z,53.99
2018-07-13T21:12:53.067Z,54.24
2018-07-13T21:15:21.467Z,55.49
2018-07-13T21:17:49.834Z,55.75
2018-07-13T21:20:18.331Z,55.39
2018-07-13T21:22:46.638Z,56.39
2018-07-13T21:25:15.043Z,55.95
2018-07-13T21:27:43.439Z,56.21
2018-07-13T21:30:11.849Z,56.76
2018-07-13T21:32:40.386Z,56.84
2018-07-13T21:35:08.786Z,56.65
2018-07-13T21:37:37.188Z,57.80
2018-07-13T21:40:05.746Z,57.18
2018-07-13T21:42:34.114Z,57.47
2018-07-13T21:45:02.526Z,58.08
2018-07-13T21:47:30.889Z,57.94
2018-07-13T21:49:59.289Z,59.28
2018-07-13T21:52:27.666Z,59.66
2018-07-13T21:54:56.072Z,59.38
2018-07-13T21:57:24.578Z,59.62
2018-07-13T21:59:52.970Z,59.71
2018-07-13T22:02:21.386Z,60.61
2018-07-13T22:04:49.799Z,61.10
2018-07-13T22:07:18.218Z,61.62
2018-07-13T22:09:46.619Z,61.46
2018-07-13T22:12:15.008Z,61.78
2018-07-13T22:14:43.418Z,62.00
2018-07-13T22:17:11.810Z,62.93
2018-07-13T22:19:40.214Z,63.05
2018-07-13T22:22:08.595Z,63.35
2018-07-13T22:24:37.018Z,62.92
2018-07-13T22:27:05.683Z,63.73
2018-07-13T22:29:34.107Z,63.84
2018-07-13T22:32:02.491Z,63.71
2018-07-13T22:34:30.871Z,64.27
2018-07-13T22:36:59.278Z,63.30
2018-07-13T22:39:27.654Z,64.51
2018-07-13T22:41:56.051Z,64.93
2018-07-13T22:44:24.425Z,64.25
2018-07-13T22:46:52.830Z,64.62
2018-07-13T22:49:21.202Z,64.99
2018-07-13T22:51:49.611Z,65.82
2018-07-13T22:54:18.004Z,65.26
2018-07-13T22:56:46.398Z,66.22
2018-07-13T22:59:14.788Z,66.41
2018-07-13T23:01:43.208Z,66.61
2018-07-13T23:04:11.601Z,66.67
2018-07-13T23:06:40.066Z,66.87
2018-07-13T23:09:08.806Z,66.49
2018-07-13T23:11:37.277Z,66.50
2018-07-13T23:14:05.817Z,67.08
2018-07-13T23:16:35.823Z,67.65
2018-07-13T23:19:04.206Z,67.63
2018-07-13T23:21:32.650Z,68.41
2018-07-13T23:24:01.009Z,67.55
2018-07-13T23:26:29.474Z,68.49
2018-07-13T23:28:57.843Z,69.32
2018-07-13T23:31:26.244Z,69.43
2018-07-13T23:33:54.618Z,69.64
2018-07-13T23:36:23.022Z,69.01
2018-07-13T23:38:51.398Z,69.45
2018-07-13T23:41:19.815Z,69.71
2018-07-13T23:43:48.207Z,69.45
2018-07-13T23:46:16.610Z,69.53
2018-07-13T23:48:44.991Z,69.68
2018-07-13T23:51:13.414Z,70.02
2018-07-13T23:53:41.795Z,70.59
2018-07-13T23:56:10.178Z,70.97
2018-07-13T23:58:38.606Z,70.12
